Latest Coastal Weather Observations for Flinders Reef

IDQ60701

Issued at 8:22 am EST Wednesday 28 September 2016 (issued every 10 minutes, with the page automatically refreshed every 10 minutes)

About coastal observations | Map of coastal stations | Coastal observations for QLD | Marine services | Other Formats
Station Details ID: 200783 Name: FLINDERS REEF Lat: -17.72 Lon: 148.45 Height: 2.6 m
Data from the previous 72 hours. | See also: Recent months at Flinders Reef
Date/Time
EST
Temp
°C
Wind Pressure Rain since
9am
mm
Weather Cloud Vis
km
Sea
Height
m
Swell
Dir  Spd
kts
Gust
kts
hPa Trend Height
m
Period
s
Dir
28/08:00am 25.9 E 10 12 1013.9 - - - - - - - - -
28/07:30am 26.1 E 10 12 1013.6 - - - - - - - - -
28/07:24am 26.0 E 11 - 1013.3 - - - - - - - - -
28/07:00am 25.7 E 9 11 1013.3 - - - - - - - - -
28/06:30am 25.3 ESE 11 12 1013.0 - - - - - - - - -
28/06:24am 25.7 ESE 11 - 1012.9 - - - - - - - - -
28/06:00am 25.3 ESE 11 13 1012.6 - - - - - - - - -
28/05:30am 25.3 E 11 13 1012.3 - - - - - - - - -
28/05:24am 25.3 E 10 - 1012.2 - - - - - - - - -
28/05:00am 25.4 ENE 9 11 1012.1 - - - - - - - - -
28/04:30am 25.3 NE 10 11 1011.5 - - - - - - - - -
28/04:24am 25.1 NE 10 - 1011.4 - - - - - - - - -
28/04:00am 25.3 NE 12 13 1011.1 - - - - - - - - -
28/03:30am 25.3 NNE 12 15 1011.3 - - - - - - - - -
28/03:24am 25.3 NNE 14 - 1010.9 - - - - - - - - -
28/03:00am 25.2 NE 12 13 1011.3 - - - - - - - - -
28/02:30am 25.2 NE 12 14 1011.7 - - - - - - - - -
28/02:24am 25.3 NE 13 - 1011.5 - - - - - - - - -
28/02:00am 25.3 ENE 14 15 1011.8 - - - - - - - - -
28/01:30am 25.4 ENE 14 16 1012.2 - - - - - - - - -
28/01:24am 25.4 ENE 14 - 1012.3 - - - - - - - - -
28/01:00am 25.5 E 14 17 1012.6 - - - - - - - - -
28/12:30am 25.4 E 15 17 1012.9 - - - - - - - - -
28/12:24am 25.2 E 14 - 1012.9 - - - - - - - - -
28/12:00am 25.5 E 14 16 1013.2 - - - - - - - - -
 
Date/Time
EST
Temp
°C
Wind Pressure Rain since
9am
mm
Weather Cloud Vis
km
Sea
Height
m
Swell
Dir  Spd
kts
Gust
kts
hPa Trend Height
m
Period
s
Dir
27/11:30pm 25.5 E 14 16 1013.3 - - - - - - - - -
27/11:24pm 25.5 E 15 - 1013.2 - - - - - - - - -
27/11:00pm 25.5 ENE 15 17 1012.9 - - - - - - - - -
27/10:30pm 25.6 ENE 14 16 1013.2 - - - - - - - - -
27/10:24pm 25.7 ENE 15 - 1013.2 - - - - - - - - -
27/10:00pm 25.5 E 14 16 1013.5 - - - - - - - - -
27/09:30pm 25.9 E 13 15 1013.5 - - - - - - - - -
27/09:24pm 25.7 E 13 - 1013.4 - - - - - - - - -
27/09:00pm 25.8 E 13 14 1013.5 - - - - - - - - -
27/08:30pm 25.8 ESE 12 13 1013.4 - - - - - - - - -
27/08:24pm 25.7 ESE 12 - 1013.3 - - - - - - - - -
27/08:00pm 25.7 E 12 13 1013.2 - - - - - - - - -
27/07:30pm 25.8 E 11 13 1013.0 - - - - - - - - -
27/07:24pm 26.0 ESE 11 - 1012.8 - - - - - - - - -
27/07:00pm 25.9 ESE 10 12 1012.8 - - - - - - - - -
27/06:30pm 25.8 ESE 10 12 1012.6 - - - - - - - - -
27/06:24pm 26.1 ESE 10 - 1012.4 - - - - - - - - -
27/06:00pm 25.9 SE 10 12 1012.2 - - - - - - - - -
27/05:30pm 26.1 SE 11 12 1012.1 - - - - - - - - -
27/05:24pm 26.0 SE 11 - 1012.0 - - - - - - - - -
27/05:00pm 26.4 SE 10 12 1011.8 - - - - - - - - -
27/04:30pm 26.4 SSE 9 11 1011.5 - - - - - - - - -
27/04:24pm 26.4 SSE 9 - 1011.3 - - - - - - - - -
27/04:00pm 26.3 SE 8 9 1011.1 - - - - - - - - -
27/03:30pm 26.2 SSE 10 11 1011.0 - - - - - - - - -
27/03:24pm 26.4 SSE 10 - 1011.0 - - - - - - - - -
27/03:00pm 26.3 SSE 10 11 1011.1 - - - - - - - - -
27/02:30pm 26.6 S 10 12 1011.4 - - - - - - - - -
27/02:24pm 26.3 S 9 - 1011.3 - - - - - - - - -
27/02:00pm 26.5 S 9 11 1011.6 - - - - - - - - -
27/01:30pm 26.2 S 7 9 1011.9 - - - - - - - - -
27/01:24pm 26.3 S 8 - 1011.8 - - - - - - - - -
27/01:00pm 26.1 S 8 10 1012.1 - - - - - - - - -
27/12:30pm 26.2 S 7 9 1012.5 - - - - - - - - -
27/12:24pm 26.1 SSE 7 - 1012.5 - - - - - - - - -
27/12:00pm 26.1 S 7 8 1012.9 - - - - - - - - -
27/11:30am 26.0 S 7 8 1013.4 - - - - - - - - -
27/11:24am 26.0 S 6 - 1013.4 - - - - - - - - -
27/11:00am 26.0 S 7 8 1014.0 - - - - - - - - -
27/10:30am 26.2 S 6 7 1014.3 - - - - - - - - -
27/10:24am 26.2 S 6 - 1014.2 - - - - - - - - -
27/10:00am 26.0 S 6 7 1014.6 - - - - - - - - -
27/09:30am 26.2 S 3 5 1014.8 - - - - - - - - -
27/09:24am 26.5 S 3 - 1014.7 - - - - - - - - -
27/09:00am 26.1 S 5 6 1015.0 - - - - - - - - -
27/08:30am 26.0 S 4 6 1015.0 - - - - - - - - -
27/08:24am 26.2 S 4 - 1014.8 - - - - - - - - -
27/08:00am 25.7 S 6 7 1015.0 - - - - - - - - -
27/07:30am 25.8 S 5 7 1014.8 - - - - - - - - -
27/07:24am 25.8 S 6 - 1014.6 - - - - - - - - -
27/07:00am 25.6 S 4 5 1014.2 - - - - - - - - -
27/06:30am 25.7 CALM 0 3 1013.6 - - - - - - - - -
27/06:24am 25.6 CALM 0 - 1013.5 - - - - - - - - -
27/06:00am 25.4 CALM 0 4 1013.4 - - - - - - - - -
27/05:30am 25.3 CALM 0 0 1013.1 - - - - - - - - -
27/05:24am 25.5 CALM 0 - 1012.9 - - - - - - - - -
27/05:00am 25.6 CALM 0 0 1012.8 - - - - - - - - -
27/04:30am 25.6 CALM 0 0 1012.7 - - - - - - - - -
27/04:24am 25.7 CALM 0 - 1012.6 - - - - - - - - -
27/04:00am 25.6 CALM 0 0 1012.5 - - - - - - - - -
27/03:30am 25.6 CALM 0 0 1012.3 - - - - - - - - -
27/03:24am 25.6 CALM 0 - 1012.2 - - - - - - - - -
27/03:00am 25.7 CALM 0 0 1012.2 - - - - - - - - -
27/02:30am 25.7 CALM 0 0 1012.6 - - - - - - - - -
27/02:24am 25.7 CALM 0 - 1012.5 - - - - - - - - -
27/02:00am 25.7 CALM 0 1 1012.8 - - - - - - - - -
27/01:30am 25.8 CALM 0 4 1013.0 - - - - - - - - -
27/01:24am 25.7 CALM 0 - 1012.9 - - - - - - - - -
27/01:00am 25.9 NE 1 3 1012.7 - - - - - - - - -
27/12:30am 25.9 NE 1 3 1012.7 - - - - - - - - -
27/12:24am 25.9 NE 1 - 1012.7 - - - - - - - - -
27/12:00am 26.0 NE 1 3 1013.2 - - - - - - - - -
 
Date/Time
EST
Temp
°C
Wind Pressure Rain since
9am
mm
Weather Cloud Vis
km
Sea
Height
m
Swell
Dir  Spd
kts
Gust
kts
hPa Trend Height
m
Period
s
Dir
26/11:30pm 26.1 NE 1 3 1013.3 - - - - - - - - -
26/11:24pm 25.9 NE 1 - 1013.2 - - - - - - - - -
26/11:00pm 26.1 NE 1 3 1013.5 - - - - - - - - -
26/10:30pm 26.0 NE 1 3 1013.7 - - - - - - - - -
26/10:24pm 26.1 NE 1 - 1013.5 - - - - - - - - -
26/10:00pm 26.2 ENE 1 3 1013.7 - - - - - - - - -
26/09:30pm 26.0 ENE 11 12 1013.4 - - - - - - - - -
26/09:24pm 26.1 ENE 11 - 1013.3 - - - - - - - - -
26/09:00pm 26.2 ENE 10 11 1013.4 - - - - - - - - -
26/08:30pm 26.2 NE 1 4 1013.3 - - - - - - - - -
26/08:24pm 26.2 CALM 0 - 1013.1 - - - - - - - - -
26/08:00pm 26.3 CALM 0 2 1013.0 - - - - - - - - -
26/07:30pm 26.3 CALM 0 2 1012.8 - - - - - - - - -
26/07:24pm 26.3 CALM 0 - 1012.5 - - - - - - - - -
26/07:00pm 26.3 CALM 0 3 1012.5 - - - - - - - - -
26/06:30pm 26.3 ENE 1 4 1012.2 - - - - - - - - -
26/06:24pm 26.3 CALM 0 - 1011.9 - - - - - - - - -
26/06:00pm 26.5 NNE 1 4 1011.7 - - - - - - - - -
26/05:30pm 26.8 N 1 6 1011.6 - - - - - - - - -
26/05:24pm 27.0 CALM 0 - 1011.4 - - - - - - - - -
26/05:00pm 27.2 N 1 5 1011.3 - - - - - - - - -
26/04:30pm 28.7 CALM 0 0 1011.0 - - - - - - - - -
26/04:24pm 28.5 CALM 0 - 1010.9 - - - - - - - - -
26/04:00pm 28.0 CALM 0 0 1010.8 - - - - - - - - -
26/03:30pm 26.9 CALM 0 0 1010.8 - - - - - - - - -
26/03:24pm 26.8 CALM 0 - 1010.7 - - - - - - - - -
26/03:00pm 27.2 NW 2 4 1010.8 - - - - - - - - -
26/02:30pm 27.3 CALM 0 0 1010.9 - - - - - - - - -
26/02:24pm 27.7 SSW 1 - 1010.8 - - - - - - - - -
26/02:00pm 26.7 SSW 4 5 1011.0 - - - - - - - - -
26/01:30pm 26.6 SSW 5 7 1011.3 - - - - - - - - -
26/01:24pm 26.5 SSW 6 - 1011.1 - - - - - - - - -
26/01:00pm 26.7 SW 4 5 1011.5 - - - - - - - - -
26/12:30pm 27.1 SW 4 6 1011.8 - - - - - - - - -
26/12:24pm 26.8 SSW 4 - 1011.7 - - - - - - - - -
26/12:00pm 26.9 S 3 5 1012.2 - - - - - - - - -
26/11:30am 27.0 S 3 4 1012.7 - - - - - - - - -
26/11:24am 27.2 S 3 - 1012.6 - - - - - - - - -
26/11:00am 27.1 S 3 5 1013.1 - - - - - - - - -
26/10:30am 27.2 CALM 0 0 1013.3 - - - - - - - - -
26/10:24am 27.2 CALM 0 - 1013.1 - - - - - - - - -
26/10:00am 26.4 SSW 3 5 1013.3 - - - - - - - - -
26/09:30am 27.1 NW 3 4 1013.5 - - - - - - - - -
26/09:24am 26.8 NW 3 - 1013.5 - - - - - - - - -
26/09:00am 26.9 NW 3 4 1013.7 - - - - - - - - -
26/08:30am 26.4 NW 3 4 1013.7 - - - - - - - - -
26/08:24am 26.3 NW 3 - 1013.6 - - - - - - - - -
26/08:00am 26.1 NW 4 4 1013.6 - - - - - - - - -
26/07:30am 26.0 WNW 4 5 1013.3 - - - - - - - - -
26/07:24am 25.7 WSW 4 - 1013.2 - - - - - - - - -
26/07:00am 25.5 WSW 4 5 1013.0 - - - - - - - - -
26/06:30am 25.6 WSW 4 4 1012.8 - - - - - - - - -
26/06:24am 25.5 WSW 4 - 1012.6 - - - - - - - - -
26/06:00am 25.5 WSW 5 6 1012.4 - - - - - - - - -
26/05:30am 25.4 CALM 0 3 1012.1 - - - - - - - - -
26/05:24am 25.4 CALM 0 - 1012.0 - - - - - - - - -
26/05:00am 25.3 CALM 0 3 1011.9 - - - - - - - - -
26/04:30am 25.4 CALM 0 2 1011.7 - - - - - - - - -
26/04:24am 25.4 CALM 0 - 1011.5 - - - - - - - - -
26/04:00am 25.4 CALM 0 1 1011.3 - - - - - - - - -
26/03:30am 25.3 CALM 0 1 1011.1 - - - - - - - - -
26/03:24am 25.2 CALM 0 - 1011.1 - - - - - - - - -
26/03:00am 25.3 CALM 0 4 1011.3 - - - - - - - - -
26/02:30am 25.3 CALM 0 5 1011.3 - - - - - - - - -
26/02:24am 25.5 CALM 0 - 1011.2 - - - - - - - - -
26/02:00am 25.5 CALM 0 2 1011.2 - - - - - - - - -
26/01:30am 25.4 N 1 3 1011.3 - - - - - - - - -
26/01:24am 25.4 CALM 0 - 1011.2 - - - - - - - - -
26/01:00am 25.5 NNE 1 3 1011.4 - - - - - - - - -
26/12:30am 25.5 CALM 0 2 1011.6 - - - - - - - - -
26/12:24am 25.5 N 1 - 1011.6 - - - - - - - - -
26/12:00am 25.4 N 1 2 1012.0 - - - - - - - - -
 
Date/Time
EST
Temp
°C
Wind Pressure Rain since
9am
mm
Weather Cloud Vis
km
Sea
Height
m
Swell
Dir  Spd
kts
Gust
kts
hPa Trend Height
m
Period
s
Dir
25/11:30pm 25.7 N 1 3 1012.3 - - - - - - - - -
25/11:24pm 25.6 N 1 - 1012.3 - - - - - - - - -
25/11:00pm 25.6 NNE 1 3 1012.4 - - - - - - - - -
25/10:30pm 25.6 NNE 1 3 1012.3 - - - - - - - - -
25/10:24pm 25.5 NNE 1 - 1012.2 - - - - - - - - -
25/10:00pm 25.6 NNE 6 11 1012.3 - - - - - - - - -
25/09:30pm 25.7 NNE 10 11 1012.1 - - - - - - - - -
25/09:24pm 25.7 NNE 10 - 1012.1 - - - - - - - - -
25/09:00pm 25.6 N 10 11 1012.1 - - - - - - - - -
25/08:30pm 25.6 N 8 9 1012.0 - - - - - - - - -
25/08:24pm 25.8 N 8 - 1011.9 - - - - - - - - -
25/08:00pm 25.7 N 8 9 1011.7 - - - - - - - - -
25/07:30pm 25.9 NNE 8 10 1011.3 - - - - - - - - -
25/07:24pm 25.9 NNE 9 - 1011.2 - - - - - - - - -
25/07:00pm 25.9 NNE 10 11 1011.0 - - - - - - - - -
25/06:30pm 25.9 N 10 11 1010.8 - - - - - - - - -
25/06:24pm 25.9 N 10 - 1010.6 - - - - - - - - -
25/06:00pm 26.0 N 10 11 1010.4 - - - - - - - - -
25/05:30pm 26.3 N 10 11 1010.0 - - - - - - - - -
25/05:24pm 26.3 N 11 - 1009.9 - - - - - - - - -
25/05:00pm 26.3 N 12 13 1009.7 - - - - - - - - -
25/04:30pm 26.8 N 12 14 1009.5 - - - - - - - - -
25/04:24pm 26.8 N 12 - 1009.4 - - - - - - - - -
25/04:00pm 26.7 N 9 11 1009.5 - - - - - - - - -
25/03:30pm 26.8 N 7 8 1009.7 - - - - - - - - -
25/03:24pm 26.9 N 7 - 1009.6 - - - - - - - - -
25/03:00pm 26.9 N 8 9 1009.8 - - - - - - - - -
25/02:30pm 26.8 N 8 8 1010.1 - - - - - - - - -
25/02:24pm 26.4 N 8 - 1010.1 - - - - - - - - -
25/02:00pm 26.9 N 7 8 1010.3 - - - - - - - - -
25/01:30pm 26.6 N 8 10 1010.7 - - - - - - - - -
25/01:24pm 26.7 NW 8 - 1010.6 - - - - - - - - -
25/01:00pm 27.1 N 8 10 1010.9 - - - - - - - - -
25/12:30pm 26.9 N 9 11 1011.0 - - - - - - - - -
25/12:24pm 26.9 N 9 - 1011.0 - - - - - - - - -
25/12:00pm 26.9 N 9 11 1011.4 - - - - - - - - -
25/11:30am 27.3 N 7 8 1012.1 - - - - - - - - -
25/11:24am 27.0 N 6 - 1012.2 - - - - - - - - -
25/11:00am 26.9 N 7 8 1012.6 - - - - - - - - -
25/10:30am 26.5 N 7 9 1012.8 - - - - - - - - -
25/10:24am 26.6 N 7 - 1012.8 - - - - - - - - -
25/10:00am 26.8 N 9 11 1012.9 - - - - - - - - -
25/09:30am 26.7 N 8 9 1012.8 - - - - - - - - -
25/09:24am 26.8 NNE 7 - 1012.8 - - - - - - - - -
25/09:00am 26.9 N 8 9 1013.0 - - - - - - - - -
25/08:30am 26.2 NNE 7 7 1013.1 - - - - - - - - -
25/08:24am 26.4 ESE 6 - 1013.0 - - - - - - - - -

Other Formats:

Comma delimited format used in spreadsheet applications
http://www.bom.gov.au/fwo/IDQ60701/IDQ60701.94290.axf

JavaScript Object Notation format (JSON) in row-major order
http://www.bom.gov.au/fwo/IDQ60701/IDQ60701.94290.json